createdAt,value
2018-05-13T00:01:50.608Z,9.97
2018-05-13T00:04:20.678Z,9.37
2018-05-13T00:06:50.996Z,8.33
2018-05-13T00:09:21.463Z,8.80
2018-05-13T00:11:51.849Z,8.27
2018-05-13T00:14:22.221Z,8.43
2018-05-13T00:16:53.055Z,8.67
2018-05-13T00:19:25.052Z,7.93
2018-05-13T00:21:55.972Z,10.10
2018-05-13T00:24:26.468Z,10.63
2018-05-13T00:26:56.995Z,10.00
2018-05-13T00:29:27.325Z,9.20
2018-05-13T00:31:58.058Z,8.27
2018-05-13T00:34:29.080Z,9.80
2018-05-13T00:37:00.046Z,8.10
2018-05-13T00:39:30.359Z,8.60
2018-05-13T00:42:00.542Z,8.17
2018-05-13T00:44:32.941Z,10.47
2018-05-13T00:47:03.089Z,10.87
2018-05-13T00:49:33.183Z,10.40
2018-05-13T00:52:04.591Z,10.37
2018-05-13T00:54:55.261Z,9.23
2018-05-13T00:57:25.776Z,8.90
2018-05-13T00:59:55.887Z,7.90
2018-05-13T01:02:26.119Z,9.17
2018-05-13T01:04:56.600Z,10.73
2018-05-13T01:07:26.765Z,7.53
2018-05-13T01:09:56.897Z,6.83
2018-05-13T01:12:27.428Z,6.27
2018-05-13T01:14:58.726Z,9.80
2018-05-13T01:17:29.795Z,7.63
2018-05-13T01:20:00.343Z,6.80
2018-05-13T01:22:30.521Z,8.63
2018-05-13T01:25:00.918Z,7.53
2018-05-13T01:27:31.610Z,6.63
2018-05-13T01:30:01.671Z,6.40
2018-05-13T01:32:32.324Z,6.87
2018-05-13T01:35:03.762Z,6.73
2018-05-13T01:37:33.965Z,7.83
2018-05-13T01:40:04.300Z,8.10
2018-05-13T01:42:34.776Z,9.83
2018-05-13T01:45:04.944Z,9.40
2018-05-13T01:47:35.333Z,6.93
2018-05-13T01:50:05.751Z,8.03
2018-05-13T01:52:36.595Z,6.17
2018-05-13T01:55:07.167Z,7.80
2018-05-13T01:57:37.318Z,7.33
2018-05-13T02:00:08.268Z,8.40
2018-05-13T02:02:39.532Z,6.10
2018-05-13T02:05:09.975Z,6.57
2018-05-13T02:07:40.047Z,9.43
2018-05-13T02:10:10.916Z,6.40
2018-05-13T02:12:41.244Z,6.70
2018-05-13T02:15:11.398Z,6.17
2018-05-13T02:17:41.929Z,5.07
2018-05-13T02:20:12.202Z,6.10
2018-05-13T02:22:43.528Z,5.47
2018-05-13T02:25:14.884Z,5.87
2018-05-13T02:27:45.804Z,6.43
2018-05-13T02:30:15.926Z,5.80
2018-05-13T02:32:46.164Z,5.73
2018-05-13T02:35:17.020Z,7.87
2018-05-13T02:37:48.366Z,5.10
2018-05-13T02:40:19.316Z,7.67
2018-05-13T02:42:49.301Z,5.77
2018-05-13T02:45:19.741Z,6.30
2018-05-13T02:47:50.590Z,6.77
2018-05-13T02:50:21.447Z,6.63
2018-05-13T02:52:51.948Z,7.07
2018-05-13T02:55:22.833Z,7.27
2018-05-13T02:57:52.926Z,6.33
2018-05-13T03:00:23.367Z,7.97
2018-05-13T03:02:53.406Z,8.60
2018-05-13T03:05:23.679Z,9.30
2018-05-13T03:07:54.560Z,9.13
2018-05-13T03:10:24.864Z,7.43
2018-05-13T03:12:55.369Z,7.27
2018-05-13T03:15:26.226Z,8.63
2018-05-13T03:17:56.249Z,9.57
2018-05-13T03:20:26.666Z,7.90
2018-05-13T03:22:57.787Z,8.07
2018-05-13T03:25:28.049Z,8.60
2018-05-13T03:27:58.628Z,8.50
2018-05-13T03:30:28.703Z,9.33
2018-05-13T03:32:58.782Z,8.43
2018-05-13T03:35:29.163Z,6.20
2018-05-13T03:37:59.269Z,7.27
2018-05-13T03:40:29.275Z,8.27
2018-05-13T03:42:59.705Z,7.53
2018-05-13T03:45:29.764Z,9.10
2018-05-13T03:48:00.016Z,9.37
2018-05-13T03:50:30.750Z,6.87
2018-05-13T03:53:00.960Z,9.37
2018-05-13T03:55:30.965Z,8.27
2018-05-13T03:58:01.551Z,7.20
2018-05-13T04:00:31.777Z,5.77
2018-05-13T04:03:01.876Z,6.60
2018-05-13T04:05:33.337Z,8.43
2018-05-13T04:08:05.697Z,5.63
2018-05-13T04:14:51.209Z,7.90
2018-05-13T04:17:22.347Z,5.07
2018-05-13T04:19:52.520Z,6.43
2018-05-13T04:22:22.709Z,4.73
2018-05-13T04:24:53.750Z,5.17
2018-05-13T04:27:24.331Z,5.77
2018-05-13T04:29:54.946Z,5.47
2018-05-13T04:32:25.752Z,4.33
2018-05-13T04:34:56.940Z,5.17
2018-05-13T04:37:27.507Z,3.80
2018-05-13T04:39:58.758Z,3.10
2018-05-13T04:42:29.805Z,6.77
2018-05-13T04:45:00.803Z,4.47
2018-05-13T04:47:30.970Z,4.07
2018-05-13T04:50:02.205Z,4.50
2018-05-13T04:52:33.334Z,3.93
2018-05-13T04:55:03.664Z,4.87
2018-05-13T04:57:33.863Z,5.27
2018-05-13T05:00:04.235Z,4.60
2018-05-13T05:02:35.208Z,7.20
2018-05-13T05:05:05.347Z,4.80
2018-05-13T05:07:36.421Z,3.60
2018-05-13T05:10:07.205Z,6.77
2018-05-13T05:12:37.739Z,5.47
2018-05-13T05:15:08.109Z,5.13
2018-05-13T05:17:38.232Z,5.97
2018-05-13T05:20:09.779Z,4.93
2018-05-13T05:22:39.924Z,6.17
2018-05-13T05:25:10.894Z,4.70
2018-05-13T05:27:41.763Z,6.97
2018-05-13T05:30:13.495Z,7.90
2018-05-13T05:32:43.728Z,6.60
2018-05-13T05:35:14.399Z,6.00
2018-05-13T05:37:45.538Z,5.10
2018-05-13T05:40:15.832Z,5.30
2018-05-13T05:42:46.289Z,5.93
2018-05-13T05:45:17.556Z,4.80
2018-05-13T05:47:49.309Z,6.20
2018-05-13T05:50:20.464Z,5.30
2018-05-13T05:52:51.279Z,5.37
2018-05-13T05:55:22.842Z,5.70
2018-05-13T05:57:53.879Z,6.53
2018-05-13T06:00:25.051Z,5.97
2018-05-13T06:02:56.345Z,5.83
2018-05-13T06:05:26.547Z,5.57
2018-05-13T06:07:56.935Z,5.33
2018-05-13T06:10:28.267Z,7.03
2018-05-13T06:12:59.146Z,4.80
2018-05-13T06:15:29.829Z,5.87
2018-05-13T06:18:00.141Z,6.27
2018-05-13T06:20:30.339Z,4.23
2018-05-13T06:23:00.995Z,6.57
2018-05-13T06:25:31.302Z,5.97
2018-05-13T06:28:02.572Z,5.70
2018-05-13T06:30:33.417Z,5.77
2018-05-13T06:33:03.875Z,5.73
2018-05-13T06:35:34.428Z,5.87
2018-05-13T06:38:04.652Z,6.03
2018-05-13T06:40:34.796Z,4.73
2018-05-13T06:43:05.550Z,4.60
2018-05-13T06:45:35.739Z,5.53
2018-05-13T06:48:06.146Z,5.50
2018-05-13T06:50:36.787Z,4.13
2018-05-13T06:53:07.222Z,4.30
2018-05-13T06:55:37.431Z,4.67
2018-05-13T06:58:08.178Z,4.30
2018-05-13T07:00:39.241Z,5.93
2018-05-13T07:03:09.768Z,3.47
2018-05-13T07:05:40.685Z,4.03
2018-05-13T07:08:11.003Z,4.37
2018-05-13T07:10:41.827Z,4.40
2018-05-13T07:13:12.905Z,4.03
2018-05-13T07:15:43.551Z,4.57
2018-05-13T07:18:13.944Z,3.67
2018-05-13T07:20:44.255Z,5.50
2018-05-13T07:23:15.519Z,5.53
2018-05-13T07:25:46.808Z,3.97
2018-05-13T07:28:17.668Z,4.23
2018-05-13T07:30:48.495Z,5.73
2018-05-13T07:33:20.363Z,9.53
2018-05-13T07:35:50.717Z,4.87
2018-05-13T07:38:21.254Z,7.13
2018-05-13T07:40:52.446Z,8.17
2018-05-13T07:43:22.988Z,10.20
2018-05-13T07:45:53.508Z,9.93
2018-05-13T07:48:24.198Z,12.50
2018-05-13T07:50:54.381Z,13.97
2018-05-13T07:53:25.066Z,15.63
2018-05-13T07:55:55.782Z,16.93
2018-05-13T07:58:26.112Z,19.60
2018-05-13T08:01:04.481Z,19.23
2018-05-13T08:03:34.949Z,20.77
2018-05-13T08:06:06.591Z,21.10
2018-05-13T08:08:36.944Z,24.13
2018-05-13T08:11:07.189Z,25.30
2018-05-13T08:13:37.746Z,29.27
2018-05-13T08:16:08.379Z,23.20
2018-05-13T08:18:38.970Z,24.87
2018-05-13T08:21:09.537Z,27.13
2018-05-13T08:23:39.907Z,23.67
2018-05-13T08:26:11.236Z,26.23
2018-05-13T08:28:41.436Z,30.47
2018-05-13T08:31:11.903Z,30.10
2018-05-13T08:33:42.541Z,28.17
2018-05-13T08:36:12.852Z,28.70
2018-05-13T08:38:43.188Z,26.13
2018-05-13T08:41:14.797Z,26.67
2018-05-13T08:43:45.195Z,30.60
2018-05-13T08:46:15.697Z,28.13
2018-05-13T08:48:46.232Z,35.87
2018-05-13T08:51:17.305Z,35.23
2018-05-13T08:53:47.694Z,30.30
2018-05-13T08:56:18.380Z,36.27
2018-05-13T08:58:49.459Z,35.17
2018-05-13T09:01:20.614Z,39.00
2018-05-13T09:03:52.002Z,43.13
2018-05-13T09:06:22.595Z,49.73
2018-05-13T09:08:55.085Z,47.80
2018-05-13T09:11:25.242Z,48.73
2018-05-13T09:13:55.700Z,50.20
2018-05-13T09:16:26.335Z,43.20
2018-05-13T09:18:57.280Z,53.23
2018-05-13T09:21:28.039Z,47.80
2018-05-13T09:23:58.813Z,43.17
2018-05-13T09:26:29.229Z,40.63
2018-05-13T09:29:00.228Z,47.03
2018-05-13T09:31:30.603Z,49.63
2018-05-13T09:34:00.976Z,49.30
2018-05-13T09:36:31.972Z,33.60
2018-05-13T09:39:02.325Z,41.93
2018-05-13T09:41:32.798Z,32.07
2018-05-13T09:44:03.721Z,24.43
2018-05-13T09:46:35.106Z,27.47
2018-05-13T09:49:05.901Z,31.20
2018-05-13T09:51:38.202Z,24.53
2018-05-13T09:54:10.862Z,24.23
2018-05-13T09:56:42.229Z,26.17
2018-05-13T09:59:12.618Z,22.83
2018-05-13T10:01:43.704Z,24.20
2018-05-13T10:04:15.296Z,24.23
2018-05-13T10:06:46.749Z,27.90
2018-05-13T10:09:18.107Z,32.57
2018-05-13T10:11:50.641Z,28.57
2018-05-13T10:14:23.701Z,28.17
2018-05-13T10:16:55.210Z,34.70
2018-05-13T10:19:27.439Z,35.77
2018-05-13T10:21:59.013Z,37.73
2018-05-13T10:24:29.596Z,36.10
2018-05-13T10:27:00.184Z,36.63
2018-05-13T10:29:31.143Z,34.50
2018-05-13T10:32:03.153Z,35.13
2018-05-13T10:34:34.827Z,33.27
2018-05-13T10:37:05.665Z,33.53
2018-05-13T10:39:36.209Z,36.13
2018-05-13T10:42:06.653Z,32.63
2018-05-13T10:44:37.443Z,33.23
2018-05-13T10:47:07.810Z,36.83
2018-05-13T10:49:38.053Z,34.80
2018-05-13T10:52:09.792Z,31.57
2018-05-13T10:54:41.539Z,35.23
2018-05-13T10:57:14.150Z,32.87
2018-05-13T10:59:48.441Z,31.53
2018-05-13T11:02:22.043Z,34.87
2018-05-13T11:04:53.798Z,39.77
2018-05-13T11:07:25.592Z,37.93
2018-05-13T11:09:58.623Z,39.50
2018-05-13T11:12:29.345Z,37.17
2018-05-13T11:15:04.074Z,37.00
2018-05-13T11:17:35.729Z,32.77
2018-05-13T11:20:08.730Z,34.63
2018-05-13T11:22:41.120Z,37.53
2018-05-13T11:25:14.029Z,44.30
2018-05-13T11:27:46.118Z,34.70
2018-05-13T11:30:19.715Z,34.27
2018-05-13T11:32:50.357Z,31.63
2018-05-13T11:35:21.845Z,33.60
2018-05-13T11:37:53.406Z,32.67
2018-05-13T11:40:24.443Z,33.57
2018-05-13T11:42:56.048Z,31.93
2018-05-13T11:45:26.853Z,27.23
2018-05-13T11:48:00.930Z,30.47
2018-05-13T11:50:32.697Z,27.20
2018-05-13T11:53:03.588Z,31.90
2018-05-13T11:55:34.890Z,28.93
2018-05-13T11:58:05.339Z,29.80
2018-05-13T12:00:37.629Z,28.83
2018-05-13T12:03:09.005Z,31.83
2018-05-13T12:05:39.831Z,31.07
2018-05-13T12:08:12.989Z,37.87
2018-05-13T12:10:51.681Z,35.80
2018-05-13T12:13:25.410Z,38.63
2018-05-13T12:15:56.854Z,41.33
2018-05-13T12:18:28.729Z,34.93
2018-05-13T12:21:07.116Z,46.07
2018-05-13T12:23:39.342Z,34.67
2018-05-13T12:26:10.931Z,35.87
2018-05-13T12:28:41.078Z,35.07
2018-05-13T12:31:11.734Z,41.40
2018-05-13T12:33:42.871Z,44.70
2018-05-13T12:36:13.732Z,44.43
2018-05-13T12:38:44.859Z,43.43
2018-05-13T12:41:15.858Z,39.87
2018-05-13T12:43:47.763Z,34.70
2018-05-13T12:46:19.588Z,32.40
2018-05-13T12:48:50.202Z,35.93
2018-05-13T12:51:21.353Z,28.67
2018-05-13T12:53:53.779Z,26.07
2018-05-13T12:56:24.593Z,28.10
2018-05-13T12:58:55.032Z,32.93
2018-05-13T13:01:25.899Z,27.37
2018-05-13T13:03:56.809Z,29.00
2018-05-13T13:06:28.485Z,31.93
2018-05-13T13:08:59.160Z,30.17
2018-05-13T13:11:31.037Z,33.17
2018-05-13T13:14:04.273Z,32.20
2018-05-13T13:16:35.382Z,31.97
2018-05-13T13:19:06.514Z,35.33
2018-05-13T13:21:37.227Z,33.40
2018-05-13T13:24:09.129Z,35.87
2018-05-13T13:26:40.938Z,33.70
2018-05-13T13:29:12.536Z,36.67
2018-05-13T13:31:43.063Z,36.93
2018-05-13T13:34:15.069Z,36.30
2018-05-13T13:36:46.837Z,31.70
2018-05-13T13:39:20.715Z,43.30
2018-05-13T13:41:55.170Z,30.03
2018-05-13T13:44:28.497Z,37.47
2018-05-13T13:46:59.512Z,42.40
2018-05-13T13:49:31.060Z,40.80
2018-05-13T13:52:03.509Z,36.60
2018-05-13T13:54:35.064Z,28.93
2018-05-13T13:57:05.813Z,36.37
2018-05-13T13:59:36.238Z,34.97
2018-05-13T14:02:09.036Z,32.83
2018-05-13T14:04:40.049Z,35.63
2018-05-13T14:07:10.502Z,33.83
2018-05-13T14:09:43.027Z,37.53
2018-05-13T14:12:14.000Z,35.93
2018-05-13T14:14:44.702Z,35.03
2018-05-13T14:17:16.255Z,37.53
2018-05-13T14:19:48.222Z,42.63
2018-05-13T14:22:18.792Z,39.23
2018-05-13T14:24:49.699Z,39.33
2018-05-13T14:27:21.139Z,44.90
2018-05-13T14:29:53.093Z,47.40
2018-05-13T14:32:23.923Z,46.30
2018-05-13T14:34:56.154Z,43.83
2018-05-13T14:37:26.882Z,40.10
2018-05-13T14:39:58.340Z,44.33
2018-05-13T14:42:31.757Z,47.40
2018-05-13T14:45:06.090Z,45.37
2018-05-13T14:47:36.539Z,52.03
2018-05-13T14:50:14.001Z,45.03
2018-05-13T14:52:49.192Z,50.97
2018-05-13T14:55:21.255Z,50.57
2018-05-13T14:57:51.752Z,46.63
2018-05-13T15:00:23.173Z,49.20
2018-05-13T15:02:55.413Z,44.03
2018-05-13T15:05:25.977Z,44.20
2018-05-13T15:07:56.588Z,43.10
2018-05-13T15:10:29.060Z,48.70
2018-05-13T15:13:00.727Z,42.17
2018-05-13T15:15:31.808Z,39.50
2018-05-13T15:18:04.095Z,38.57
2018-05-13T15:20:36.517Z,37.90
2018-05-13T15:23:08.295Z,37.20
2018-05-13T15:25:38.622Z,40.60
2018-05-13T15:28:08.966Z,36.47
2018-05-13T15:30:41.257Z,36.90
2018-05-13T15:33:12.216Z,37.17
2018-05-13T15:35:44.645Z,35.27
2018-05-13T15:38:16.399Z,39.00
2018-05-13T15:40:48.546Z,38.00
2018-05-13T15:43:19.394Z,40.67
2018-05-13T15:45:50.460Z,39.50
2018-05-13T15:48:26.081Z,37.10
2018-05-13T15:50:57.932Z,39.93
2018-05-13T15:53:28.588Z,35.53
2018-05-13T15:55:59.404Z,37.70
2018-05-13T15:58:36.162Z,32.37
2018-05-13T16:01:07.850Z,37.37
2018-05-13T16:03:39.314Z,38.07
2018-05-13T16:06:10.031Z,32.83
2018-05-13T16:08:41.680Z,36.90
2018-05-13T16:11:12.419Z,39.47
2018-05-13T16:13:43.374Z,38.23
2018-05-13T16:16:13.862Z,36.43
2018-05-13T16:18:45.889Z,38.83
2018-05-13T16:21:17.244Z,42.43
2018-05-13T16:23:47.894Z,41.33
2018-05-13T16:26:18.299Z,42.77
2018-05-13T16:28:49.711Z,43.20
2018-05-13T16:31:22.819Z,48.30
2018-05-13T16:33:54.325Z,46.27
2018-05-13T16:36:25.395Z,45.20
2018-05-13T16:38:57.242Z,49.63
2018-05-13T16:41:29.919Z,45.97
2018-05-13T16:44:04.621Z,47.40
2018-05-13T16:46:36.711Z,43.97
2018-05-13T16:49:10.723Z,44.57
2018-05-13T16:51:43.474Z,43.23
2018-05-13T16:54:14.984Z,43.07
2018-05-13T16:56:45.816Z,43.17
2018-05-13T16:59:17.173Z,43.10
2018-05-13T17:01:49.071Z,44.40
2018-05-13T17:04:20.984Z,46.47
2018-05-13T17:06:52.589Z,48.00
2018-05-13T17:09:25.106Z,46.37
2018-05-13T17:11:57.402Z,46.30
2018-05-13T17:14:32.049Z,46.37
2018-05-13T17:17:03.862Z,48.97
2018-05-13T17:19:36.327Z,49.97
2018-05-13T17:22:08.789Z,47.07
2018-05-13T17:24:40.674Z,50.27
2018-05-13T17:27:11.528Z,52.60
2018-05-13T17:29:42.214Z,51.40
2018-05-13T17:32:12.736Z,57.10
2018-05-13T17:34:44.211Z,52.63
2018-05-13T17:37:15.570Z,50.17
2018-05-13T17:39:45.953Z,54.80
2018-05-13T17:42:18.468Z,48.00
2018-05-13T17:44:49.005Z,48.00
2018-05-13T17:47:21.268Z,48.90
2018-05-13T17:49:53.913Z,48.03
2018-05-13T17:52:28.066Z,49.07
2018-05-13T17:54:59.413Z,48.43
2018-05-13T17:57:31.355Z,49.03
2018-05-13T18:00:02.447Z,51.20
2018-05-13T18:02:35.635Z,47.27
2018-05-13T18:05:08.683Z,51.70
2018-05-13T18:07:39.303Z,58.67
2018-05-13T18:10:11.021Z,59.17
2018-05-13T18:12:42.202Z,58.40
2018-05-13T18:15:14.173Z,60.07
2018-05-13T18:17:44.659Z,62.40
2018-05-13T18:20:15.610Z,61.83
2018-05-13T18:22:46.668Z,61.47
2018-05-13T18:25:19.610Z,58.67
2018-05-13T18:27:50.373Z,74.03
2018-05-13T18:30:20.746Z,73.97
2018-05-13T18:32:51.715Z,79.93
2018-05-13T18:35:23.665Z,82.97
2018-05-13T18:37:54.749Z,100.30
2018-05-13T18:40:25.056Z,116.97
2018-05-13T18:42:56.943Z,104.27
2018-05-13T18:45:28.130Z,76.83
2018-05-13T18:47:59.749Z,79.80
2018-05-13T18:50:31.067Z,77.63
2018-05-13T18:53:01.327Z,83.17
2018-05-13T18:55:32.355Z,67.47
2018-05-13T18:58:03.056Z,80.73
2018-05-13T19:00:34.925Z,76.90
2018-05-13T19:03:07.127Z,78.57
2018-05-13T19:05:37.736Z,77.00
2018-05-13T19:08:08.524Z,68.93
2018-05-13T19:10:39.227Z,69.40
2018-05-13T19:13:09.629Z,74.00
2018-05-13T19:15:39.984Z,85.90
2018-05-13T19:18:10.688Z,91.80
2018-05-13T19:20:40.830Z,87.97
2018-05-13T19:23:11.035Z,101.67
2018-05-13T19:25:41.499Z,91.40
2018-05-13T19:28:12.559Z,93.43
2018-05-13T19:30:43.402Z,89.07
2018-05-13T19:33:13.952Z,96.33
2018-05-13T19:35:45.125Z,90.13
2018-05-13T19:38:16.114Z,104.67
2018-05-13T19:40:47.629Z,103.50
2018-05-13T19:43:18.476Z,95.27
2018-05-13T19:45:49.654Z,98.30
2018-05-13T19:48:20.177Z,95.37
2018-05-13T19:50:52.633Z,85.20
2018-05-13T19:53:22.948Z,100.33
2018-05-13T19:55:54.498Z,89.50
2018-05-13T19:58:25.968Z,91.30
2018-05-13T20:00:56.750Z,91.47
2018-05-13T20:03:27.309Z,87.20
2018-05-13T20:05:58.180Z,93.43
2018-05-13T20:08:29.322Z,92.30
2018-05-13T20:11:00.565Z,88.17
2018-05-13T20:13:32.048Z,87.33
2018-05-13T20:16:02.636Z,86.40
2018-05-13T20:18:33.597Z,90.83
2018-05-13T20:21:04.252Z,88.27
2018-05-13T20:23:34.768Z,87.57
2018-05-13T20:26:05.553Z,78.97
2018-05-13T20:28:35.885Z,83.27
2018-05-13T20:31:08.096Z,79.83
2018-05-13T20:33:38.935Z,89.33
2018-05-13T20:36:10.185Z,79.17
2018-05-13T20:38:41.073Z,80.40
2018-05-13T20:41:12.190Z,82.53
2018-05-13T20:43:42.889Z,92.40
2018-05-13T20:46:14.536Z,88.17
2018-05-13T20:48:45.866Z,80.07
2018-05-13T20:51:16.379Z,78.97
2018-05-13T20:53:47.036Z,81.03
2018-05-13T20:56:17.239Z,79.43
2018-05-13T20:58:49.543Z,80.20
2018-05-13T21:01:20.816Z,68.27
2018-05-13T21:03:51.112Z,68.40
2018-05-13T21:06:22.832Z,68.03
2018-05-13T21:08:53.338Z,73.37
2018-05-13T21:11:23.745Z,70.70
2018-05-13T21:13:54.583Z,67.13
2018-05-13T21:16:24.872Z,69.33
2018-05-13T21:18:56.019Z,66.63
2018-05-13T21:21:26.859Z,67.40
2018-05-13T21:23:57.294Z,71.70
2018-05-13T21:26:28.201Z,71.43
2018-05-13T21:28:58.780Z,67.43
2018-05-13T21:31:30.767Z,65.10
2018-05-13T21:34:01.683Z,68.67
2018-05-13T21:36:32.195Z,65.63
2018-05-13T21:39:03.553Z,63.93
2018-05-13T21:41:35.229Z,66.30
2018-05-13T21:44:06.535Z,64.87
2018-05-13T21:46:39.427Z,54.47
2018-05-13T21:49:10.096Z,61.43
2018-05-13T21:51:40.433Z,63.20
2018-05-13T21:54:10.994Z,65.67
2018-05-13T21:56:42.050Z,63.10
2018-05-13T21:59:12.535Z,59.70
2018-05-13T22:01:43.090Z,57.10
2018-05-13T22:04:13.587Z,64.00
2018-05-13T22:06:43.849Z,64.60
2018-05-13T22:09:14.054Z,62.70
2018-05-13T22:11:44.514Z,58.43
2018-05-13T22:14:14.711Z,63.60
2018-05-13T22:16:45.116Z,65.43
2018-05-13T22:19:15.610Z,59.70
2018-05-13T22:21:45.834Z,68.13
2018-05-13T22:24:16.841Z,60.70
2018-05-13T22:26:47.459Z,58.07
2018-05-13T22:29:17.675Z,53.80
2018-05-13T22:31:48.276Z,56.73
2018-05-13T22:34:18.528Z,54.30
2018-05-13T22:36:48.591Z,54.07
2018-05-13T22:39:20.190Z,51.30
2018-05-13T22:41:50.259Z,52.37
2018-05-13T22:44:20.350Z,43.97
2018-05-13T22:46:50.864Z,48.03
2018-05-13T22:49:21.388Z,44.00
2018-05-13T22:51:52.612Z,43.37
2018-05-13T22:54:23.599Z,38.20
2018-05-13T22:56:54.588Z,39.00
2018-05-13T22:59:25.821Z,39.00
2018-05-13T23:01:56.115Z,40.07
2018-05-13T23:04:26.496Z,40.73
2018-05-13T23:06:57.812Z,41.60
2018-05-13T23:09:28.827Z,47.97
2018-05-13T23:11:58.945Z,41.30
2018-05-13T23:14:29.422Z,43.23
2018-05-13T23:16:59.493Z,46.20
2018-05-13T23:19:30.422Z,49.87
2018-05-13T23:22:00.637Z,51.87
2018-05-13T23:24:31.954Z,49.40
2018-05-13T23:27:02.331Z,51.70
2018-05-13T23:29:32.701Z,46.33
2018-05-13T23:32:03.214Z,55.07
2018-05-13T23:34:33.410Z,50.40
2018-05-13T23:37:04.940Z,52.83
2018-05-13T23:39:35.303Z,60.30
2018-05-13T23:42:05.446Z,52.53
2018-05-13T23:44:36.010Z,56.50
2018-05-13T23:47:06.943Z,62.20
2018-05-13T23:49:37.917Z,59.70
2018-05-13T23:52:08.328Z,61.77
2018-05-13T23:54:38.359Z,57.87
2018-05-13T23:57:08.837Z,61.90
2018-05-13T23:59:40.022Z,65.13
